Terminal Aerodrome Forecast
Issued by NWS Twin Cities, MN

Home | Current Version | Previous Version | Graphics & Text | Print | Product List | Glossary On
Versions: 1 2 3 4 5 6 7 8 9 10 11 12 13
000
FTUS43 KMPX 252320
TAFEAU
TAF
KEAU 252320Z 2600/2624 18006KT P6SM SCT050 BKN090
     FM260200 14004KT P6SM SCT070
     FM260600 VRB03KT P6SM VCSH BKN060
     FM261400 16008KT P6SM BKN080
     FM262000 19006KT P6SM BKN050 PROB30 2621/2623 -TSRA BKN035CB=

USA.gov is the U.S. government's official web portal to all federal, state and local government web resources and services.